Time;durP1;ratioP1;P1;durP2;ratioP2;P2;SDS_P1;SDS_P2;PMS_P1;PMS_P2;Temp;Humidity;BMP_temperature;BMP_pressure;BME280_temperature;BME280_humidity;BME280_pressure;Samples;Min_cycle;Max_cycle;Signal;HPM_P1;HPM_P2
2022/11/05 00:10:58;;;;;;;;;24.75;22.50;;;;;11.08;83.56;97566.75;4930783;28;104074;-71
2022/11/05 00:16:42;;;;;;;;;20.75;17.75;;;;;11.03;83.11;97568.50;4940508;28;102377;-71
2022/11/05 00:19:07;;;;;;;;;24.75;23.25;;;;;10.93;82.37;97579.03;4930665;28;108694;-72
2022/11/05 00:27:09;;;;;;;;;16.75;15.75;;;;;10.80;79.65;97600.84;4925465;28;102407;-72
2022/11/05 00:29:36;;;;;;;;;15.25;12.00;;;;;10.74;80.19;97586.34;4937785;28;103989;-73
2022/11/05 00:32:03;;;;;;;;;9.75;9.00;;;;;10.71;80.19;97595.75;4935332;28;102280;-72
2022/11/05 00:34:30;;;;;;;;;8.00;6.00;;;;;10.67;79.54;97591.81;4946884;28;102425;-70
2022/11/05 00:36:57;;;;;;;;;9.00;7.25;;;;;10.60;79.33;97599.19;4938173;28;102812;-70
2022/11/05 00:39:24;;;;;;;;;6.25;5.50;;;;;10.55;79.23;97590.09;4930717;28;108941;-71
2022/11/05 00:50:09;;;;;;;;;3.75;3.00;;;;;10.33;77.93;97600.53;4934027;28;108602;-72
2022/11/05 00:52:56;;;;;;;;;3.25;3.00;;;;;10.27;77.87;97596.00;4931143;28;102696;-71
2022/11/05 00:55:37;;;;;;;;;3.25;3.25;;;;;10.25;78.16;97603.53;4938952;28;103918;-72
2022/11/05 00:58:16;;;;;;;;;3.00;3.00;;;;;10.18;78.26;97602.75;4935763;28;102159;-72
2022/11/05 01:00:47;;;;;;;;;1.00;1.00;;;;;10.16;78.50;97600.31;4934877;28;104243;-71
2022/11/05 01:03:16;;;;;;;;;2.25;2.25;;;;;10.13;78.91;97614.19;4938741;28;102423;-71
2022/11/05 01:05:52;;;;;;;;;1.75;1.00;;;;;10.14;79.13;97606.91;4931802;28;102454;-71
2022/11/05 01:08:21;;;;;;;;;1.00;1.00;;;;;10.10;79.11;97601.16;4934172;28;102372;-70
2022/11/05 01:10:51;;;;;;;;;1.50;1.50;;;;;10.06;79.18;97604.50;4935954;28;104019;-71
2022/11/05 01:13:20;;;;;;;;;2.50;2.00;;;;;10.02;79.35;97603.31;4926907;28;102236;-71
2022/11/05 01:15:49;;;;;;;;;2.75;2.75;;;;;9.93;78.67;97604.63;4922801;28;102507;-72
2022/11/05 01:18:17;;;;;;;;;2.75;2.75;;;;;9.88;78.46;97612.56;4937436;28;102173;-71
2022/11/05 01:20:45;;;;;;;;;2.75;2.00;;;;;9.85;78.03;97611.97;4934429;28;104024;-71
2022/11/05 01:23:12;;;;;;;;;4.50;3.50;;;;;9.75;78.07;97625.13;4925058;28;102113;-72
2022/11/05 01:25:41;;;;;;;;;3.25;3.00;;;;;9.74;78.14;97628.03;4920405;28;102146;-71
2022/11/05 01:28:08;;;;;;;;;2.75;2.00;;;;;9.73;78.06;97638.00;4934264;28;102494;-70
2022/11/05 01:30:36;;;;;;;;;5.00;5.00;;;;;9.64;78.44;97639.31;4919326;28;104778;-71
2022/11/05 01:33:03;;;;;;;;;4.75;4.75;;;;;9.60;78.52;97637.28;4935201;28;104131;-71
2022/11/05 01:35:30;;;;;;;;;4.75;3.50;;;;;9.60;78.25;97631.88;4930567;28;101911;-70
2022/11/05 01:37:57;;;;;;;;;4.00;3.00;;;;;9.59;78.37;97633.75;4929898;28;102586;-70
2022/11/05 01:40:24;;;;;;;;;3.00;3.00;;;;;9.57;78.28;97633.16;4931359;28;104161;-72
2022/11/05 01:42:51;;;;;;;;;3.50;3.00;;;;;9.61;78.72;97637.06;4928432;28;102605;-71
2022/11/05 01:45:22;;;;;;;;;3.00;1.00;;;;;9.62;78.45;97657.63;4937328;28;102102;-71
2022/11/05 01:47:52;;;;;;;;;1.50;1.50;;;;;9.57;77.86;97667.41;4931621;28;105199;-71
2022/11/05 01:50:41;;;;;;;;;2.00;2.00;;;;;9.58;78.48;97678.00;4939861;28;104152;-70
2022/11/05 01:53:18;;;;;;;;;3.00;3.00;;;;;9.59;78.39;97674.22;4940605;28;102208;-70
2022/11/05 01:55:52;;;;;;;;;3.75;3.75;;;;;9.55;77.54;97675.72;4929496;28;103743;-71
2022/11/05 01:58:23;;;;;;;;;4.00;4.00;;;;;9.48;78.00;97672.25;4942444;28;102356;-70
2022/11/05 02:00:50;;;;;;;;;4.00;3.00;;;;;9.50;78.18;97680.13;4937845;28;103969;-71
2022/11/05 02:03:18;;;;;;;;;5.00;4.00;;;;;9.46;78.25;97692.38;4937164;28;102172;-71
2022/11/05 02:05:49;;;;;;;;;9.50;8.00;;;;;9.36;77.63;97690.16;4923908;28;104924;-71
2022/11/05 02:09:07;;;;;;;;;5.75;5.00;;;;;9.37;77.49;97683.72;4927598;28;102380;-71
2022/11/05 02:11:54;;;;;;;;;5.50;4.75;;;;;9.37;78.04;97699.91;4917237;28;107623;-71
2022/11/05 02:14:39;;;;;;;;;6.00;4.75;;;;;9.32;77.90;97705.13;4932857;28;102335;-71
2022/11/05 02:17:30;;;;;;;;;5.75;5.75;;;;;9.30;78.03;97699.13;4938824;28;102005;-71
2022/11/05 02:20:35;;;;;;;;;3.75;3.75;;;;;9.34;77.75;97711.13;4934120;28;102600;-71
2022/11/05 02:23:52;;;;;;;;;4.00;4.00;;;;;9.31;77.51;97715.09;4918951;28;110283;-70
2022/11/05 02:26:45;;;;;;;;;1.00;1.00;;;;;9.31;77.57;97712.41;4930759;28;102460;-70
2022/11/05 02:29:30;;;;;;;;;3.00;3.00;;;;;9.25;77.28;97720.50;4936782;28;102487;-71
2022/11/05 02:32:21;;;;;;;;;4.00;4.00;;;;;9.17;77.51;97697.31;4937222;28;102430;-70
2022/11/05 02:35:00;;;;;;;;;8.50;8.00;;;;;9.12;77.79;97688.19;4939454;28;108861;-71
2022/11/05 02:37:52;;;;;;;;;7.00;7.00;;;;;9.06;77.93;97695.28;4935252;28;103433;-71
2022/11/05 02:40:44;;;;;;;;;6.00;5.50;;;;;9.02;77.16;97693.22;4933147;28;102506;-71
2022/11/05 02:43:29;;;;;;;;;6.25;5.00;;;;;9.01;78.20;97707.72;4934241;28;102190;-70
2022/11/05 02:46:35;;;;;;;;;5.00;5.00;;;;;8.94;78.22;97719.38;4934750;28;108677;-71
2022/11/05 02:49:13;;;;;;;;;7.00;6.50;;;;;8.86;78.25;97725.00;4909406;28;102320;-71
2022/11/05 02:51:55;;;;;;;;;6.00;5.00;;;;;8.88;77.71;97732.88;4936354;28;102378;-70
2022/11/05 02:54:53;;;;;;;;;8.00;4.75;;;;;8.89;78.12;97731.84;4935513;28;102768;-70
2022/11/05 02:57:21;;;;;;;;;5.00;5.00;;;;;8.87;77.56;97739.31;4940570;28;108731;-71
2022/11/05 02:59:48;;;;;;;;;8.75;6.25;;;;;8.84;77.63;97743.25;4936405;28;102328;-71
2022/11/05 03:02:15;;;;;;;;;5.50;5.00;;;;;8.79;77.88;97740.34;4942628;28;104105;-71
2022/11/05 03:04:42;;;;;;;;;4.00;4.00;;;;;8.78;77.67;97745.97;4943503;28;102325;-71
2022/11/05 03:07:21;;;;;;;;;4.00;3.00;;;;;8.81;77.90;97742.84;4945991;28;103952;-71
2022/11/05 03:10:14;;;;;;;;;4.50;4.00;;;;;8.78;77.31;97745.97;4932533;28;102931;-71
2022/11/05 03:13:09;;;;;;;;;4.00;4.00;;;;;8.78;77.42;97744.06;4928142;28;102226;-71
2022/11/05 03:15:36;;;;;;;;;3.00;3.00;;;;;8.78;77.14;97752.16;4928926;28;102775;-72
2022/11/05 03:18:06;;;;;;;;;4.50;4.00;;;;;8.78;77.22;97754.84;4934591;28;103998;-72
2022/11/05 03:20:39;;;;;;;;;3.25;3.00;;;;;8.78;77.63;97752.16;4931330;28;102301;-71
2022/11/05 03:23:37;;;;;;;;;3.00;3.00;;;;;8.75;77.50;97767.94;4927212;28;102672;-71
2022/11/05 03:26:20;;;;;;;;;3.75;3.75;;;;;8.66;77.37;97759.25;4933285;28;102523;-71
2022/11/05 03:28:55;;;;;;;;;4.00;4.00;;;;;8.74;76.92;97772.50;4928595;28;104156;-71
2022/11/05 03:31:24;;;;;;;;;5.00;4.00;;;;;8.70;77.54;97768.56;4938703;28;102231;-71
2022/11/05 03:33:53;;;;;;;;;4.00;4.00;;;;;8.66;77.16;97761.94;4923845;28;102160;-71
2022/11/05 03:36:43;;;;;;;;;4.75;4.00;;;;;8.72;77.03;97771.06;4936447;28;102302;-71
2022/11/05 03:39:18;;;;;;;;;5.75;4.00;;;;;8.69;76.96;97764.22;4925643;28;108787;-71
2022/11/05 03:41:50;;;;;;;;;1.00;1.00;;;;;8.77;77.33;97774.78;4935516;28;102371;-71
2022/11/05 03:44:25;;;;;;;;;2.00;2.00;;;;;8.81;77.13;97784.13;4927886;28;102396;-71
2022/11/05 03:46:59;;;;;;;;;1.75;1.75;;;;;8.83;78.04;97792.81;4932083;28;102173;-71
2022/11/05 03:49:34;;;;;;;;;0.00;0.00;;;;;8.74;76.92;97779.75;4931275;28;108904;-71
2022/11/05 03:52:13;;;;;;;;;1.25;0.75;;;;;8.90;77.02;97793.63;4938007;28;102165;-70
2022/11/05 03:54:40;;;;;;;;;0.25;0.25;;;;;8.88;77.25;97790.31;4927169;28;102037;-71
2022/11/05 03:57:16;;;;;;;;;1.00;1.00;;;;;8.58;76.82;97740.59;4929937;28;102176;-71
2022/11/05 03:59:46;;;;;;;;;1.50;1.50;;;;;8.91;76.87;97795.31;4928501;28;103198;-72
2022/11/05 04:02:15;;;;;;;;;2.25;2.00;;;;;8.90;76.87;97790.94;4934495;28;102378;-71
2022/11/05 04:04:42;;;;;;;;;1.75;1.50;;;;;8.92;76.76;97796.09;4929533;28;104381;-71
2022/11/05 04:15:28;;;;;;;;;1.25;1.25;;;;;8.94;77.62;97810.22;4930142;28;102409;-71
2022/11/05 04:17:57;;;;;;;;;1.25;1.00;;;;;8.94;77.84;97810.22;4931800;28;102331;-71
2022/11/05 04:24:11;;;;;;;;;5.00;4.25;;;;;8.87;77.86;97817.50;4935339;28;110282;-71
2022/11/05 04:26:06;;;;;;;;;2.75;2.75;;;;;8.89;77.70;97810.00;4929866;28;102950;-71
2022/11/05 04:31:19;;;;;;;;;2.25;2.00;;;;;8.90;78.41;97815.19;4947174;28;104007;-71
2022/11/05 04:33:46;;;;;;;;;2.00;1.75;;;;;8.87;78.85;97821.00;4952573;28;102003;-71
2022/11/05 04:36:12;;;;;;;;;2.00;2.00;;;;;8.91;78.74;97816.03;4947663;28;104012;-71
2022/11/05 04:38:41;;;;;;;;;1.00;1.00;;;;;8.91;79.12;97816.88;4935928;28;102208;-71
2022/11/05 04:41:16;;;;;;;;;1.50;1.00;;;;;8.90;78.77;97804.41;4924348;28;103427;-71
2022/11/05 04:43:43;;;;;;;;;2.50;2.50;;;;;8.83;79.96;97814.38;4930301;28;102380;-72
2022/11/05 04:46:11;;;;;;;;;1.50;1.50;;;;;8.87;79.86;97820.19;4935523;28;102288;-71
2022/11/05 04:48:38;;;;;;;;;2.00;1.00;;;;;8.88;79.77;97813.75;4929360;28;102124;-71
2022/11/05 04:51:05;;;;;;;;;1.00;1.00;;;;;8.88;80.22;97825.34;4929054;28;103993;-71
2022/11/05 04:53:32;;;;;;;;;1.00;1.00;;;;;8.84;80.87;97825.97;4909636;28;102562;-71
2022/11/05 04:56:17;;;;;;;;;2.00;2.00;;;;;8.82;81.38;97828.06;4937262;28;102333;-71
2022/11/05 04:58:44;;;;;;;;;2.75;2.00;;;;;8.72;82.09;97828.50;4935313;28;102010;-71
2022/11/05 05:01:13;;;;;;;;;3.00;2.00;;;;;8.67;82.63;97822.06;4937201;28;103665;-71
2022/11/05 05:03:41;;;;;;;;;1.00;1.00;;;;;8.67;82.75;97824.75;4927189;28;105922;-71
2022/11/05 05:06:09;;;;;;;;;2.00;1.25;;;;;8.65;83.35;97827.66;4935033;28;101971;-71
2022/11/05 05:08:36;;;;;;;;;2.00;2.00;;;;;8.63;83.62;97820.81;4935640;28;102032;-72
2022/11/05 05:11:08;;;;;;;;;1.50;1.50;;;;;8.60;84.12;97824.75;4938748;28;105933;-72
2022/11/05 05:13:35;;;;;;;;;2.00;2.00;;;;;8.60;84.17;97824.75;4937873;28;102477;-72
2022/11/05 05:16:06;;;;;;;;;1.00;1.00;;;;;8.58;84.23;97826.81;4933447;28;102453;-70
2022/11/05 05:18:34;;;;;;;;;2.50;2.00;;;;;8.49;84.49;97839.69;4927216;28;101965;-72
2022/11/05 05:23:47;;;;;;;;;4.75;3.75;;;;;8.28;85.51;97812.06;4938234;28;102278;-71
2022/11/05 05:26:15;;;;;;;;;1.75;1.75;;;;;8.51;84.70;97844.84;4939625;28;102063;-71
2022/11/05 05:28:42;;;;;;;;;2.00;1.50;;;;;8.52;85.30;97851.91;4940749;28;102405;-70
2022/11/05 05:31:09;;;;;;;;;3.25;3.00;;;;;8.48;85.11;97837.19;4930928;28;103968;-70
2022/11/05 05:33:36;;;;;;;;;3.50;3.00;;;;;8.46;85.69;97839.28;4931523;28;102587;-70
2022/11/05 05:36:03;;;;;;;;;8.00;7.00;;;;;8.44;85.96;97835.94;4927089;28;102897;-71
2022/11/05 05:38:37;;;;;;;;;4.25;4.25;;;;;8.46;85.54;97844.66;4918675;28;102881;-71
2022/11/05 05:41:04;;;;;;;;;4.00;2.75;;;;;8.46;86.14;97850.03;4930635;28;104027;-71
2022/11/05 05:43:32;;;;;;;;;15.00;12.25;;;;;8.25;86.90;97861.78;4943352;28;102408;-71
2022/11/05 05:46:04;;;;;;;;;11.50;11.00;;;;;8.20;87.68;97866.09;4933156;28;104239;-70
2022/11/05 05:48:31;;;;;;;;;21.00;18.25;;;;;8.20;87.57;97882.25;4928057;28;102432;-70
2022/11/05 05:51:03;;;;;;;;;14.50;11.25;;;;;8.11;87.43;97887.00;4944237;28;104222;-70
2022/11/05 05:53:30;;;;;;;;;12.25;11.50;;;;;8.05;87.07;97890.53;4930688;28;102904;-71
2022/11/05 05:55:57;;;;;;;;;11.25;10.50;;;;;8.10;86.77;97900.69;4947830;28;102806;-70
2022/11/05 05:58:29;;;;;;;;;15.00;12.75;;;;;8.01;86.91;97898.16;4950125;28;102572;-72
2022/11/05 06:01:00;;;;;;;;;15.00;12.50;;;;;7.83;87.10;97889.84;4938804;28;104010;-70
2022/11/05 06:03:27;;;;;;;;;15.25;11.00;;;;;7.87;87.33;97904.56;4949288;28;102970;-70
2022/11/05 06:06:02;;;;;;;;;17.00;13.00;;;;;7.89;86.75;97907.03;4948404;28;101958;-70
2022/11/05 06:08:30;;;;;;;;;12.00;11.25;;;;;7.92;86.73;97904.78;4948435;28;102373;-70
2022/11/05 06:10:58;;;;;;;;;16.00;13.75;;;;;7.94;86.69;97899.19;4948428;28;108787;-70
2022/11/05 06:13:25;;;;;;;;;19.75;16.25;;;;;7.86;86.69;97891.28;4941988;28;102279;-71
2022/11/05 06:15:52;;;;;;;;;10.75;10.00;;;;;8.08;86.62;97917.03;4949757;28;102203;-70
2022/11/05 06:18:19;;;;;;;;;20.25;18.00;;;;;7.98;86.19;97921.97;4951759;28;104212;-70
2022/11/05 06:20:46;;;;;;;;;18.25;17.00;;;;;7.68;86.20;97877.53;4944910;28;104103;-70
2022/11/05 06:23:13;;;;;;;;;20.50;16.00;;;;;8.03;86.13;97936.50;4947356;28;102437;-71
2022/11/05 06:25:40;;;;;;;;;20.00;17.25;;;;;8.12;86.10;97949.78;4943977;28;102255;-70
2022/11/05 06:28:07;;;;;;;;;14.50;12.75;;;;;7.89;84.76;97909.72;4945792;28;103005;-71
2022/11/05 06:30:34;;;;;;;;;15.75;13.00;;;;;8.12;84.87;97934.44;4941448;28;104382;-71
2022/11/05 06:33:05;;;;;;;;;17.50;16.00;;;;;8.23;84.47;97955.44;4930490;28;102676;-71
2022/11/05 06:35:32;;;;;;;;;23.75;21.25;;;;;8.10;85.03;97957.22;4947240;28;101962;-71
2022/11/05 06:38:02;;;;;;;;;20.00;17.50;;;;;8.12;84.50;97969.44;4949926;28;103949;-70
2022/11/05 06:40:29;;;;;;;;;23.75;19.25;;;;;8.11;84.72;97975.88;4931576;28;108717;-70
2022/11/05 06:42:56;;;;;;;;;12.75;11.50;;;;;8.22;84.98;97977.16;4929892;28;102911;-70
2022/11/05 06:45:23;;;;;;;;;30.75;26.25;;;;;8.17;84.58;97985.00;4926214;28;102459;-70
2022/11/05 06:47:57;;;;;;;;;22.75;21.50;;;;;8.16;84.28;97988.72;4930675;28;103740;-71
2022/11/05 06:50:26;;;;;;;;;17.00;15.75;;;;;8.23;84.86;97992.28;4942263;28;103996;-71
2022/11/05 06:52:58;;;;;;;;;13.75;12.50;;;;;8.25;84.28;97993.75;4934519;28;102172;-71
2022/11/05 06:55:27;;;;;;;;;21.25;16.25;;;;;8.27;84.46;97997.06;4927714;28;102289;-71
2022/11/05 06:57:55;;;;;;;;;17.00;15.25;;;;;8.33;84.58;98007.06;4943951;28;103811;-71
2022/11/05 07:00:22;;;;;;;;;17.75;16.75;;;;;8.22;84.25;97998.69;4928450;28;104088;-71
2022/11/05 07:02:49;;;;;;;;;10.50;9.75;;;;;8.36;83.85;98016.63;4934691;28;102590;-70
2022/11/05 07:05:16;;;;;;;;;10.00;10.00;;;;;8.40;83.73;98018.72;4926599;28;109778;-71
2022/11/05 07:07:44;;;;;;;;;18.25;16.75;;;;;8.30;83.94;98029.00;4930312;28;102409;-71
2022/11/05 07:10:14;;;;;;;;;23.50;19.50;;;;;7.88;84.09;97968.09;4946017;28;104032;-71
2022/11/05 07:12:41;;;;;;;;;22.75;18.50;;;;;8.20;84.27;98027.69;4943906;28;102258;-71
2022/11/05 07:15:10;;;;;;;;;21.50;19.50;;;;;8.07;85.11;98031.16;4945649;28;102167;-71
2022/11/05 07:17:38;;;;;;;;;24.25;23.50;;;;;8.07;84.82;98037.38;4948603;28;102261;-71
2022/11/05 07:20:07;;;;;;;;;17.50;16.00;;;;;8.07;85.10;98033.84;4941447;28;104331;-71
2022/11/05 07:22:34;;;;;;;;;13.00;13.00;;;;;8.17;85.09;98039.69;4926582;28;102380;-72
2022/11/05 07:25:02;;;;;;;;;15.00;11.00;;;;;8.27;84.25;98042.03;4937650;28;102292;-71
2022/11/05 07:27:29;;;;;;;;;8.50;8.00;;;;;8.36;84.29;98038.16;4940268;28;102991;-71
2022/11/05 07:29:56;;;;;;;;;15.00;14.00;;;;;8.31;84.28;98040.63;4941932;28;109071;-71
2022/11/05 07:32:23;;;;;;;;;25.75;21.50;;;;;8.19;84.51;98045.72;4946091;28;102360;-71
2022/11/05 07:34:50;;;;;;;;;24.75;22.25;;;;;8.14;84.80;98040.09;4929264;28;102264;-71
2022/11/05 07:37:17;;;;;;;;;18.25;16.00;;;;;8.21;84.52;98045.50;4947376;28;102334;-71
2022/11/05 07:39:44;;;;;;;;;29.50;21.25;;;;;8.01;84.67;98054.31;4948823;28;104135;-71
2022/11/05 07:42:12;;;;;;;;;22.75;18.50;;;;;8.01;85.86;98050.81;4929836;28;102423;-72
2022/11/05 07:44:39;;;;;;;;;19.75;19.00;;;;;8.09;85.36;98047.94;4928513;28;102136;-71
2022/11/05 07:47:06;;;;;;;;;24.25;19.50;;;;;8.11;85.34;98050.41;4929423;28;103369;-71
2022/11/05 07:49:33;;;;;;;;;20.00;17.00;;;;;8.22;85.21;98044.47;4930705;28;104522;-71
2022/11/05 07:52:00;;;;;;;;;31.50;26.50;;;;;8.06;84.94;98054.53;4941124;28;102386;-71
2022/11/05 07:54:27;;;;;;;;;31.25;24.50;;;;;8.05;86.41;98058.28;4937542;28;102496;-72
2022/11/05 07:56:54;;;;;;;;;29.75;23.75;;;;;8.13;85.59;98059.97;4935340;28;102589;-71
2022/11/05 07:59:21;;;;;;;;;33.25;28.00;;;;;8.01;86.55;98057.00;4926848;28;104184;-71
2022/11/05 08:01:48;;;;;;;;;30.00;23.25;;;;;8.16;85.04;98059.56;4927338;28;102249;-71
2022/11/05 08:04:15;;;;;;;;;25.25;21.50;;;;;8.18;85.15;98068.28;4928850;28;101881;-71
2022/11/05 08:06:42;;;;;;;;;34.25;29.25;;;;;8.11;85.62;98061.19;4935306;28;102581;-72
2022/11/05 08:09:09;;;;;;;;;25.50;21.50;;;;;8.26;84.83;98069.97;4929284;28;103963;-71
2022/11/05 08:11:36;;;;;;;;;24.75;18.25;;;;;8.29;84.88;98056.09;4923051;28;102448;-72
2022/11/05 08:14:03;;;;;;;;;28.00;27.00;;;;;8.19;84.60;98056.50;4924742;28;102157;-71
2022/11/05 08:16:30;;;;;;;;;29.75;24.00;;;;;8.30;85.22;98074.81;4930293;28;103038;-71
2022/11/05 08:18:57;;;;;;;;;37.25;31.25;;;;;8.13;85.16;98067.22;4940704;28;108704;-71
2022/11/05 08:21:23;;;;;;;;;24.25;24.00;;;;;8.21;85.67;98064.34;4933786;28;102095;-71
2022/11/05 08:23:50;;;;;;;;;37.00;32.25;;;;;8.19;85.38;98058.34;4931047;28;102177;-71
2022/11/05 08:26:18;;;;;;;;;24.00;20.00;;;;;8.31;84.78;98060.31;4936977;28;102099;-71
2022/11/05 08:28:45;;;;;;;;;35.50;29.00;;;;;7.84;85.56;98007.19;4923226;28;104087;-71
2022/11/05 08:31:14;;;;;;;;;23.75;21.25;;;;;8.24;85.71;98066.69;4932161;28;102397;-71
2022/11/05 08:33:41;;;;;;;;;25.50;18.50;;;;;8.32;85.21;98077.31;4927070;28;102504;-71
2022/11/05 08:36:08;;;;;;;;;13.75;13.50;;;;;8.41;85.09;98081.50;4938586;28;103794;-70
2022/11/05 08:38:36;;;;;;;;;27.25;22.00;;;;;8.35;85.28;98087.69;4929156;28;103591;-71
2022/11/05 08:41:03;;;;;;;;;27.00;21.00;;;;;8.32;85.58;98085.38;4936410;28;102644;-71
2022/11/05 08:43:30;;;;;;;;;23.00;20.25;;;;;8.42;84.89;98097.44;4950563;28;102476;-70
2022/11/05 08:46:00;;;;;;;;;16.75;13.50;;;;;8.43;85.68;98100.97;4935417;28;103849;-70
2022/11/05 08:48:27;;;;;;;;;23.25;22.00;;;;;8.32;85.39;98106.94;4949401;28;106359;-71
2022/11/05 08:50:54;;;;;;;;;20.75;17.00;;;;;8.38;85.04;98106.13;4936012;28;102581;-71
2022/11/05 08:53:21;;;;;;;;;28.00;23.75;;;;;8.31;86.31;98110.66;4938940;28;102181;-71
2022/11/05 08:55:50;;;;;;;;;24.75;17.50;;;;;8.40;85.94;98110.28;4945287;28;103949;-71
2022/11/05 08:58:19;;;;;;;;;25.00;18.75;;;;;8.43;85.46;98111.75;4945113;28;103822;-71
2022/11/05 09:00:48;;;;;;;;;18.00;15.00;;;;;8.48;85.73;98117.38;4928342;28;102476;-71
2022/11/05 09:03:16;;;;;;;;;32.25;31.00;;;;;8.27;85.75;98115.59;4917857;28;102232;-70
2022/11/05 09:05:44;;;;;;;;;21.75;20.75;;;;;8.36;86.08;98116.28;4931797;28;102086;-71
2022/11/05 09:08:14;;;;;;;;;37.25;32.00;;;;;8.18;86.58;98114.06;4928173;28;104014;-71
2022/11/05 09:10:42;;;;;;;;;29.00;25.25;;;;;8.16;86.83;98113.44;4928150;28;103603;-71
2022/11/05 09:13:09;;;;;;;;;25.00;21.50;;;;;8.21;86.81;98119.06;4921670;28;102500;-71
2022/11/05 09:15:44;;;;;;;;;23.25;21.00;;;;;8.24;86.54;98115.97;4929648;28;102351;-71
2022/11/05 09:18:12;;;;;;;;;24.50;21.50;;;;;8.21;87.19;98110.13;4929534;28;103957;-71
2022/11/05 09:20:40;;;;;;;;;24.00;22.00;;;;;8.26;87.48;98118.47;4937085;28;102213;-72
2022/11/05 09:23:08;;;;;;;;;17.00;15.00;;;;;8.43;86.77;98119.84;4931320;28;104091;-72
2022/11/05 09:25:36;;;;;;;;;30.50;28.25;;;;;8.23;87.13;98118.88;4925754;28;102573;-72
2022/11/05 09:28:07;;;;;;;;;29.00;28.00;;;;;8.19;87.86;98117.59;4929890;28;103983;-72
2022/11/05 09:30:45;;;;;;;;;26.50;21.00;;;;;8.33;88.17;98124.78;4928239;28;102318;-72
2022/11/05 09:33:13;;;;;;;;;22.75;20.75;;;;;8.31;87.52;98116.88;4935736;28;101952;-73
2022/11/05 09:35:41;;;;;;;;;30.50;23.25;;;;;8.10;88.18;98108.84;4937995;28;102001;-73
2022/11/05 09:38:09;;;;;;;;;19.00;17.00;;;;;8.27;88.21;98126.34;4947718;28;103969;-71
2022/11/05 09:40:42;;;;;;;;;31.50;20.25;;;;;8.22;88.38;98131.50;4944596;28;102344;-71
2022/11/05 09:43:19;;;;;;;;;37.50;29.50;;;;;8.17;88.41;98133.94;4938311;28;102383;-73
2022/11/05 09:45:55;;;;;;;;;34.00;27.25;;;;;8.12;88.66;98133.69;4932337;28;102240;-72
2022/11/05 09:48:27;;;;;;;;;25.00;19.00;;;;;8.18;88.91;98132.94;4931334;28;104770;-72
2022/11/05 09:50:56;;;;;;;;;18.75;18.00;;;;;8.11;89.09;98136.59;4935968;28;102106;-73
2022/11/05 09:53:24;;;;;;;;;18.25;14.00;;;;;8.28;88.86;98135.28;4934234;28;101986;-72
2022/11/05 09:55:55;;;;;;;;;25.50;22.50;;;;;8.31;88.11;98142.97;4922688;28;102076;-73
2022/11/05 09:58:27;;;;;;;;;23.75;22.00;;;;;8.28;88.32;98143.34;4924989;28;104024;-73
2022/11/05 10:00:56;;;;;;;;;32.25;27.25;;;;;8.19;89.05;98144.53;4914763;28;102201;-73
2022/11/05 10:03:26;;;;;;;;;29.75;24.50;;;;;8.25;89.36;98149.09;4937733;28;101946;-73
2022/11/05 10:05:59;;;;;;;;;39.75;28.75;;;;;8.24;89.50;98142.09;4923758;28;102181;-72
2022/11/05 10:08:34;;;;;;;;;31.50;27.00;;;;;8.34;89.33;98153.34;4923423;28;104295;-73
2022/11/05 10:11:08;;;;;;;;;42.25;28.25;;;;;8.27;89.61;98149.75;4933524;28;102261;-72
2022/11/05 10:13:44;;;;;;;;;24.00;20.25;;;;;8.38;89.43;98149.22;4938342;28;101833;-72
2022/11/05 10:16:24;;;;;;;;;31.00;24.75;;;;;8.41;89.65;98149.69;4932696;28;102152;-73
2022/11/05 10:19:03;;;;;;;;;22.00;18.00;;;;;8.51;88.89;98144.75;4935921;28;104041;-73
2022/11/05 10:21:30;;;;;;;;;25.00;22.25;;;;;8.47;88.93;98159.66;4935498;28;102133;-73
2022/11/05 10:24:19;;;;;;;;;29.75;26.75;;;;;8.39;90.10;98156.28;4935989;28;102273;-73
2022/11/05 10:26:49;;;;;;;;;32.00;26.50;;;;;8.42;89.23;98155.91;4931677;28;101998;-73
2022/11/05 10:29:37;;;;;;;;;27.00;26.00;;;;;8.41;88.97;98160.47;4930484;28;104116;-73
2022/11/05 10:32:06;;;;;;;;;31.25;27.00;;;;;8.43;89.28;98176.41;4951586;28;102313;-72
2022/11/05 10:34:37;;;;;;;;;11.50;8.25;;;;;8.39;89.11;98167.06;4939789;28;102220;-73
2022/11/05 10:37:04;;;;;;;;;25.75;21.25;;;;;8.34;88.93;98164.97;4935637;28;102491;-73
2022/11/05 10:39:32;;;;;;;;;23.00;21.00;;;;;8.26;89.84;98140.00;4937942;28;103570;-73
2022/11/05 10:42:16;;;;;;;;;22.25;18.75;;;;;8.36;89.13;98175.53;4931974;28;101999;-73
2022/11/05 10:45:13;;;;;;;;;23.00;22.00;;;;;8.35;90.31;98171.19;4940357;28;102381;-72
2022/11/05 10:48:07;;;;;;;;;24.25;21.25;;;;;8.30;90.10;98168.25;4949141;28;102327;-73
2022/11/05 10:50:34;;;;;;;;;22.00;19.50;;;;;8.29;89.62;98163.84;4936648;28;108618;-72
2022/11/05 10:53:11;;;;;;;;;20.75;17.50;;;;;8.30;90.43;98171.78;4930718;28;102249;-72
2022/11/05 10:55:50;;;;;;;;;24.75;18.50;;;;;8.39;89.34;98172.44;4944824;28;102028;-72
2022/11/05 10:58:21;;;;;;;;;17.00;14.00;;;;;8.45;89.43;98168.97;4937190;28;102577;-73
2022/11/05 11:00:51;;;;;;;;;17.00;15.25;;;;;8.41;89.35;98182.00;4936610;28;103837;-73
2022/11/05 11:03:39;;;;;;;;;17.00;13.25;;;;;8.46;88.92;98205.66;4935773;28;102268;-73
2022/11/05 11:06:25;;;;;;;;;20.25;18.00;;;;;8.41;89.28;98197.34;4929544;28;102323;-72
2022/11/05 11:08:55;;;;;;;;;18.50;12.50;;;;;8.40;89.56;98198.38;4939634;28;105853;-73
2022/11/05 11:11:37;;;;;;;;;18.50;16.75;;;;;8.34;89.58;98196.44;4933642;28;103864;-73
2022/11/05 11:14:10;;;;;;;;;12.00;11.00;;;;;8.40;90.49;98191.13;4934800;28;103123;-73
2022/11/05 11:16:40;;;;;;;;;12.50;11.25;;;;;8.49;89.52;98187.22;4922150;28;102552;-73
2022/11/05 11:19:19;;;;;;;;;18.50;16.75;;;;;8.40;90.01;98185.72;4929604;28;103218;-73
2022/11/05 11:22:06;;;;;;;;;17.25;13.25;;;;;8.47;89.57;98180.38;4935219;28;103981;-72
2022/11/05 11:24:45;;;;;;;;;18.00;17.00;;;;;8.41;89.24;98181.19;4934259;28;102117;-73
2022/11/05 11:27:23;;;;;;;;;26.50;19.25;;;;;8.46;90.27;98197.59;4943596;28;102440;-73
2022/11/05 11:29:58;;;;;;;;;19.50;17.75;;;;;8.52;90.16;98194.06;4943751;28;101986;-73
2022/11/05 11:32:38;;;;;;;;;20.25;17.50;;;;;8.54;89.87;98201.97;4950285;28;104437;-72
2022/11/05 11:35:17;;;;;;;;;13.75;12.50;;;;;8.62;89.69;98199.94;4949600;28;102372;-72
2022/11/05 11:37:45;;;;;;;;;11.00;10.75;;;;;8.64;90.03;98202.47;4950229;28;102479;-72
2022/11/05 11:40:31;;;;;;;;;16.75;15.50;;;;;8.62;89.50;98205.34;4932577;28;102173;-72
2022/11/05 11:43:03;;;;;;;;;12.75;11.50;;;;;8.60;90.29;98210.09;4944971;28;108777;-72
2022/11/05 11:45:43;;;;;;;;;10.25;10.00;;;;;8.70;90.01;98202.47;4951381;28;102410;-72
2022/11/05 11:48:17;;;;;;;;;24.00;16.75;;;;;8.45;90.00;98182.44;4933508;28;102404;-72
2022/11/05 11:50:46;;;;;;;;;16.00;14.25;;;;;8.65;90.91;98215.72;4935641;28;102036;-72
2022/11/05 11:53:22;;;;;;;;;10.75;10.50;;;;;8.67;89.91;98202.88;4934562;28;103160;-72
2022/11/05 11:55:57;;;;;;;;;11.00;10.25;;;;;8.70;90.36;98202.47;4932431;28;102267;-72
2022/11/05 11:58:48;;;;;;;;;12.75;12.25;;;;;8.64;90.13;98207.84;4934343;28;102464;-73
2022/11/05 12:01:21;;;;;;;;;23.25;22.00;;;;;8.59;90.87;98194.97;4933691;28;102478;-72
2022/11/05 12:03:57;;;;;;;;;23.75;19.25;;;;;8.67;90.60;98202.88;4937323;28;104034;-72
2022/11/05 12:06:26;;;;;;;;;19.50;16.75;;;;;8.70;90.22;98202.47;4922780;28;109685;-72
2022/11/05 12:09:02;;;;;;;;;26.25;19.75;;;;;8.60;89.79;98210.09;4933744;28;102121;-72
2022/11/05 12:11:42;;;;;;;;;9.25;7.00;;;;;8.73;89.79;98210.19;4936077;28;102454;-73
2022/11/05 12:14:27;;;;;;;;;19.00;17.75;;;;;8.66;89.48;98217.38;4935278;28;108929;-72
2022/11/05 12:17:09;;;;;;;;;14.75;11.00;;;;;8.78;89.53;98223.06;4936795;28;102361;-72
2022/11/05 12:19:43;;;;;;;;;21.00;18.50;;;;;8.61;88.93;98214.44;4930774;28;102091;-73
2022/11/05 12:22:10;;;;;;;;;18.00;17.50;;;;;8.65;89.57;98229.19;4942608;28;103987;-73
2022/11/05 12:24:47;;;;;;;;;25.00;20.50;;;;;8.70;89.73;98239.38;4922234;28;104043;-74
2022/11/05 12:27:38;;;;;;;;;16.50;16.00;;;;;8.81;89.53;98231.59;4924796;28;102264;-73
2022/11/05 12:30:15;;;;;;;;;20.00;16.50;;;;;8.87;89.09;98235.34;4924895;28;102098;-73
2022/11/05 12:32:48;;;;;;;;;15.75;9.75;;;;;8.86;88.63;98231.81;4934077;28;102247;-72